Time;durP1;ratioP1;P1;durP2;ratioP2;P2;SDS_P1;SDS_P2;PMS_P1;PMS_P2;Temp;Humidity;BMP_temperature;BMP_pressure;BME280_temperature;BME280_humidity;BME280_pressure;Samples;Min_cycle;Max_cycle;Signal;HPM_P1;HPM_P2
2023/10/02 00:01:06;;;;;;;15.50;7.07;;;15.60;96.00;;;;;;5006791;28;20156;-71
2023/10/02 00:03:39;;;;;;;15.57;6.85;;;15.60;95.90;;;;;;5000031;28;20044;-71
2023/10/02 00:06:09;;;;;;;17.23;6.63;;;15.60;95.70;;;;;;5009190;28;20041;-71
2023/10/02 00:08:42;;;;;;;15.68;6.93;;;15.70;95.80;;;;;;5021766;28;20041;-71
2023/10/02 00:11:36;;;;;;;17.73;7.25;;;15.80;95.50;;;;;;5006593;28;20389;-71
2023/10/02 00:14:19;;;;;;;17.23;6.50;;;15.80;95.50;;;;;;4990214;28;20467;-71
2023/10/02 00:16:59;;;;;;;14.65;6.78;;;15.80;95.50;;;;;;5006020;28;20470;-71
2023/10/02 00:19:36;;;;;;;17.35;7.10;;;15.80;95.40;;;;;;5008583;28;20038;-71
2023/10/02 00:22:05;;;;;;;16.98;6.88;;;15.80;95.30;;;;;;5009790;28;20018;-71
2023/10/02 00:24:32;;;;;;;15.80;6.85;;;15.80;95.20;;;;;;5005646;28;20072;-71
2023/10/02 00:26:58;;;;;;;17.45;7.35;;;15.80;95.20;;;;;;5006551;28;20402;-70
2023/10/02 00:29:26;;;;;;;18.00;7.15;;;15.90;95.10;;;;;;5007757;28;20037;-71
2023/10/02 00:31:52;;;;;;;14.05;6.50;;;15.90;95.00;;;;;;5011477;28;20421;-71
2023/10/02 00:34:30;;;;;;;13.07;6.65;;;15.90;95.10;;;;;;5009823;28;20031;-71
2023/10/02 00:37:00;;;;;;;15.07;6.38;;;15.90;95.00;;;;;;5006466;28;20494;-71
2023/10/02 00:39:27;;;;;;;14.77;6.88;;;15.90;94.90;;;;;;5006578;28;20459;-70
2023/10/02 00:44:52;;;;;;;14.40;6.28;;;15.90;94.80;;;;;;5006465;28;20088;-70
2023/10/02 00:47:38;;;;;;;15.77;7.22;;;15.90;94.80;;;;;;5010042;28;20055;-70
2023/10/02 00:50:24;;;;;;;14.63;6.28;;;15.90;94.70;;;;;;5009346;28;20041;-71
2023/10/02 00:53:02;;;;;;;14.48;6.18;;;15.90;94.80;;;;;;5007729;28;20465;-70
2023/10/02 00:55:32;;;;;;;15.27;7.43;;;16.00;94.90;;;;;;5009409;28;20022;-71
2023/10/02 00:58:03;;;;;;;14.07;6.60;;;15.90;94.70;;;;;;5006542;28;20058;-70
2023/10/02 01:00:30;;;;;;;20.38;7.30;;;16.00;94.70;;;;;;5012619;28;20485;-71
2023/10/02 01:02:58;;;;;;;16.60;6.75;;;16.00;94.60;;;;;;5008097;28;20391;-71
2023/10/02 01:05:41;;;;;;;15.27;6.78;;;16.00;94.60;;;;;;5010014;28;20037;-71
2023/10/02 01:08:42;;;;;;;13.50;6.43;;;16.00;94.60;;;;;;5003169;28;20113;-71
2023/10/02 01:11:15;;;;;;;14.00;6.55;;;16.00;94.70;;;;;;5007410;28;20029;-71
2023/10/02 01:13:41;;;;;;;16.27;7.25;;;16.00;94.50;;;;;;5003851;28;20034;-71
2023/10/02 01:16:08;;;;;;;15.65;6.72;;;15.90;94.50;;;;;;5009993;28;20057;-71
2023/10/02 01:18:38;;;;;;;14.32;6.53;;;16.00;94.40;;;;;;5018838;28;20517;-71
2023/10/02 01:21:12;;;;;;;14.98;7.05;;;15.90;94.50;;;;;;5010727;28;20394;-72
2023/10/02 01:24:16;;;;;;;14.13;7.25;;;15.80;94.60;;;;;;5024797;28;20493;-70
2023/10/02 01:26:43;;;;;;;13.85;6.20;;;15.80;94.60;;;;;;5010136;28;20053;-70
2023/10/02 01:29:11;;;;;;;13.95;6.95;;;15.80;94.60;;;;;;5005580;28;20032;-70
2023/10/02 01:31:51;;;;;;;17.13;7.13;;;15.70;94.70;;;;;;5008241;28;20026;-70
2023/10/02 01:34:33;;;;;;;15.82;6.32;;;15.60;94.80;;;;;;4998761;28;20054;-70
2023/10/02 01:37:00;;;;;;;16.02;6.90;;;15.50;94.90;;;;;;5005430;28;20076;-70
2023/10/02 01:39:26;;;;;;;13.73;6.60;;;15.50;95.20;;;;;;5007201;28;20018;-71
2023/10/02 01:41:54;;;;;;;16.65;7.07;;;15.40;95.30;;;;;;5013080;28;20034;-70
2023/10/02 01:44:22;;;;;;;16.30;8.07;;;15.40;95.60;;;;;;5010435;28;20038;-70
2023/10/02 01:46:52;;;;;;;16.40;7.32;;;15.40;95.70;;;;;;5006456;28;20378;-70
2023/10/02 01:49:25;;;;;;;17.52;7.45;;;15.40;95.60;;;;;;5009591;28;20034;-71
2023/10/02 01:51:55;;;;;;;14.23;7.45;;;15.40;95.70;;;;;;5012358;28;20030;-72
2023/10/02 01:54:26;;;;;;;17.43;7.63;;;15.40;95.70;;;;;;5005732;28;20030;-71
2023/10/02 01:56:52;;;;;;;18.35;7.15;;;15.30;95.80;;;;;;5008275;28;20029;-70
2023/10/02 01:59:21;;;;;;;13.73;6.70;;;15.30;95.90;;;;;;5011296;28;20022;-72
2023/10/02 02:01:52;;;;;;;19.60;8.23;;;15.30;95.80;;;;;;5011348;28;20105;-70
2023/10/02 02:04:28;;;;;;;17.40;7.63;;;15.30;96.00;;;;;;5006692;28;20030;-70
2023/10/02 02:06:56;;;;;;;18.58;7.97;;;15.30;96.00;;;;;;5000216;28;20034;-72
2023/10/02 02:09:30;;;;;;;17.13;7.65;;;15.30;95.80;;;;;;5008305;28;20060;-71
2023/10/02 02:12:13;;;;;;;16.73;8.25;;;15.40;95.90;;;;;;5004186;28;20099;-71
2023/10/02 02:14:51;;;;;;;16.02;7.35;;;15.40;95.90;;;;;;5010401;28;20132;-71
2023/10/02 02:17:19;;;;;;;15.98;7.53;;;15.40;95.90;;;;;;5008592;28;20033;-70
2023/10/02 02:19:48;;;;;;;16.88;7.22;;;15.50;95.80;;;;;;5006913;28;20065;-70
2023/10/02 02:22:36;;;;;;;17.85;8.00;;;15.50;95.70;;;;;;5009328;28;20374;-72
2023/10/02 02:25:04;;;;;;;14.80;7.47;;;15.50;95.80;;;;;;5005664;28;20289;-71
2023/10/02 02:27:29;;;;;;;20.70;7.35;;;15.60;95.80;;;;;;5008770;28;20061;-72
2023/10/02 02:29:57;;;;;;;16.42;7.07;;;15.60;95.70;;;;;;5004569;28;20617;-71
2023/10/02 02:32:36;;;;;;;15.77;7.63;;;15.50;95.70;;;;;;5009965;28;20462;-70
2023/10/02 02:35:03;;;;;;;17.73;7.65;;;15.70;95.60;;;;;;5007756;28;20445;-71
2023/10/02 02:37:32;;;;;;;18.70;7.03;;;15.60;95.50;;;;;;5004738;28;20034;-72
2023/10/02 02:40:21;;;;;;;16.33;7.05;;;15.70;95.50;;;;;;5009925;28;20386;-70
2023/10/02 02:42:45;;;;;;;14.30;6.20;;;15.70;95.40;;;;;;4996788;28;20037;-71
2023/10/02 02:45:28;;;;;;;15.48;7.55;;;15.70;95.30;;;;;;5004814;28;20469;-71
2023/10/02 02:47:54;;;;;;;19.42;8.07;;;15.70;95.30;;;;;;5004520;28;20030;-71
2023/10/02 02:50:32;;;;;;;18.77;6.80;;;15.70;95.30;;;;;;5011776;28;20041;-71
2023/10/02 02:55:42;;;;;;;16.92;6.85;;;15.80;95.10;;;;;;5004131;28;20096;-70
2023/10/02 02:58:07;;;;;;;16.60;7.15;;;15.80;95.00;;;;;;4998705;28;20026;-71
2023/10/02 03:00:35;;;;;;;14.90;7.03;;;15.80;95.00;;;;;;5010130;28;20041;-71
2023/10/02 03:03:02;;;;;;;15.48;6.82;;;15.80;95.00;;;;;;5008817;28;20050;-72
2023/10/02 03:05:41;;;;;;;13.65;6.38;;;15.80;94.80;;;;;;5010414;28;20034;-71
2023/10/02 03:08:08;;;;;;;17.58;7.32;;;15.80;94.80;;;;;;5010812;28;20061;-72
2023/10/02 03:10:39;;;;;;;16.88;7.30;;;15.90;94.80;;;;;;5002085;28;20041;-73
2023/10/02 03:13:08;;;;;;;17.90;7.20;;;15.80;94.70;;;;;;5008663;28;20033;-71
2023/10/02 03:15:46;;;;;;;16.20;6.25;;;15.90;94.80;;;;;;5011716;28;20037;-71
2023/10/02 03:18:30;;;;;;;17.45;7.20;;;15.80;94.80;;;;;;5008259;28;20022;-70
2023/10/02 03:21:14;;;;;;;17.40;7.07;;;15.80;94.80;;;;;;5007049;28;20041;-71
2023/10/02 03:23:42;;;;;;;16.50;7.05;;;15.80;94.80;;;;;;5009822;28;20042;-71
2023/10/02 03:26:26;;;;;;;15.43;6.30;;;15.90;94.70;;;;;;5004631;28;20058;-71
2023/10/02 03:29:00;;;;;;;17.45;6.95;;;15.90;94.70;;;;;;5005544;28;20046;-71
2023/10/02 03:31:34;;;;;;;16.45;6.47;;;15.90;94.70;;;;;;5004902;28;20034;-71
2023/10/02 03:36:59;;;;;;;18.08;7.53;;;15.90;94.50;;;;;;5004080;28;20044;-71
2023/10/02 03:39:59;;;;;;;15.45;6.50;;;16.00;94.30;;;;;;5025406;28;20038;-71
2023/10/02 03:42:25;;;;;;;15.57;7.72;;;15.90;94.50;;;;;;5000231;28;20051;-71
2023/10/02 03:44:54;;;;;;;16.23;6.68;;;15.90;94.50;;;;;;5004383;28;20027;-71
2023/10/02 03:47:20;;;;;;;15.98;6.70;;;16.00;94.40;;;;;;5009947;28;20041;-70
2023/10/02 03:49:47;;;;;;;15.60;7.03;;;16.00;94.40;;;;;;5008135;28;20091;-73
2023/10/02 03:52:16;;;;;;;15.13;6.82;;;16.00;94.40;;;;;;5006551;28;20518;-71
2023/10/02 03:54:46;;;;;;;14.38;6.45;;;16.00;94.30;;;;;;5008436;28;20152;-71
2023/10/02 03:57:37;;;;;;;15.95;6.45;;;16.00;94.40;;;;;;5007009;28;20026;-70
2023/10/02 04:00:11;;;;;;;17.75;6.88;;;16.00;94.50;;;;;;5003041;28;20040;-70
2023/10/02 04:02:36;;;;;;;15.93;6.75;;;16.00;94.20;;;;;;5003712;28;20076;-70
2023/10/02 04:05:04;;;;;;;17.05;6.70;;;16.00;94.20;;;;;;5006154;28;20578;-72
2023/10/02 04:07:30;;;;;;;17.30;6.68;;;16.00;94.20;;;;;;4997366;28;20045;-71
2023/10/02 04:09:56;;;;;;;18.13;7.22;;;16.00;94.20;;;;;;5007144;28;20039;-70
2023/10/02 04:12:22;;;;;;;14.10;6.70;;;16.00;94.10;;;;;;5000023;28;20026;-71
2023/10/02 04:14:48;;;;;;;14.93;7.07;;;16.00;94.20;;;;;;5008514;28;20458;-71
2023/10/02 04:17:20;;;;;;;16.52;6.45;;;16.00;94.00;;;;;;5006663;28;20045;-72
2023/10/02 04:19:49;;;;;;;12.93;6.30;;;16.00;94.00;;;;;;5003374;28;20096;-70
2023/10/02 04:22:25;;;;;;;15.52;6.72;;;16.00;94.00;;;;;;5009278;28;20167;-70
2023/10/02 04:24:58;;;;;;;15.95;6.38;;;16.00;94.00;;;;;;5008711;28;20030;-70
2023/10/02 04:32:51;;;;;;;13.05;6.55;;;16.00;94.10;;;;;;5008717;28;20716;-67
2023/10/02 04:38:08;;;;;;;15.50;6.20;;;16.00;94.10;;;;;;5002682;28;20040;-68
2023/10/02 04:40:38;;;;;;;13.68;6.10;;;16.00;94.10;;;;;;5004312;28;20031;-68
2023/10/02 04:43:19;;;;;;;16.13;6.82;;;16.00;94.10;;;;;;5005277;28;20036;-67
2023/10/02 04:45:47;;;;;;;;;;;16.00;94.00;;;;;;5007030;28;20422;-68
2023/10/02 04:48:17;;;;;;;13.32;6.57;;;16.00;93.90;;;;;;5001580;28;19936;-67
2023/10/02 04:50:46;;;;;;;16.25;6.50;;;16.00;94.10;;;;;;5005174;28;20509;-67
2023/10/02 04:53:22;;;;;;;13.88;6.75;;;16.00;94.10;;;;;;5003490;28;20415;-67
2023/10/02 04:55:49;;;;;;;17.48;6.72;;;15.90;94.10;;;;;;5002605;28;20057;-67
2023/10/02 04:58:19;;;;;;;17.02;6.53;;;16.00;94.10;;;;;;4995543;28;20423;-67
2023/10/02 05:03:30;;;;;;;14.57;6.47;;;16.00;94.00;;;;;;5004854;28;20129;-67
2023/10/02 05:06:00;;;;;;;14.45;6.68;;;16.00;94.00;;;;;;5003486;28;20398;-66
2023/10/02 05:11:23;;;;;;;15.40;6.40;;;16.00;93.70;;;;;;5004824;28;20041;-68
2023/10/02 05:16:32;;;;;;;13.25;6.68;;;16.10;93.50;;;;;;5007590;28;20045;-67
2023/10/02 05:18:59;;;;;;;16.45;6.68;;;16.10;93.50;;;;;;5007587;28;20034;-67
2023/10/02 05:21:49;;;;;;;15.60;6.90;;;16.10;93.40;;;;;;5008887;28;20486;-67
2023/10/02 05:24:15;;;;;;;14.20;6.70;;;16.10;93.30;;;;;;5011106;28;20367;-67
2023/10/02 05:26:44;;;;;;;14.65;6.28;;;16.10;93.40;;;;;;5004446;28;20058;-66
2023/10/02 05:29:17;;;;;;;15.38;7.05;;;16.10;93.70;;;;;;4998989;28;20030;-67
2023/10/02 05:31:47;;;;;;;15.75;6.90;;;16.10;93.50;;;;;;5005883;28;20393;-67
2023/10/02 05:34:13;;;;;;;15.57;6.57;;;16.10;93.40;;;;;;5011071;28;20038;-67
2023/10/02 05:37:03;;;;;;;15.48;6.78;;;16.10;93.50;;;;;;5011886;28;20084;-68
2023/10/02 05:39:39;;;;;;;14.15;6.15;;;16.10;93.50;;;;;;5001798;28;20372;-67
2023/10/02 05:42:13;;;;;;;13.60;7.05;;;16.10;93.60;;;;;;5024508;28;20034;-67
2023/10/02 05:44:39;;;;;;;14.73;6.47;;;16.10;93.50;;;;;;5001754;28;20034;-69
2023/10/02 05:47:05;;;;;;;16.95;6.65;;;16.10;93.50;;;;;;5011418;28;20034;-67
2023/10/02 05:49:43;;;;;;;18.23;7.22;;;16.00;93.60;;;;;;5008546;28;20037;-70
2023/10/02 05:52:09;;;;;;;14.70;7.40;;;16.10;93.50;;;;;;5010788;28;20088;-66
2023/10/02 05:54:47;;;;;;;16.33;6.72;;;16.10;93.50;;;;;;5009985;28;20066;-65
2023/10/02 05:57:12;;;;;;;17.98;6.70;;;16.10;93.40;;;;;;5009221;28;20104;-66
2023/10/02 05:59:55;;;;;;;15.80;6.90;;;16.10;93.40;;;;;;5004523;28;20109;-66
2023/10/02 06:02:22;;;;;;;13.63;6.32;;;16.10;93.40;;;;;;5006938;28;20034;-68
2023/10/02 06:04:52;;;;;;;13.52;6.18;;;16.10;93.40;;;;;;5002115;28;20053;-65
2023/10/02 06:07:43;;;;;;;13.13;6.83;;;16.20;93.20;;;;;;5011406;28;20489;-67
2023/10/02 06:10:25;;;;;;;12.98;6.25;;;16.10;93.40;;;;;;5009906;28;20418;-66
2023/10/02 06:13:06;;;;;;;16.08;7.07;;;16.20;93.40;;;;;;5001305;28;20494;-66
2023/10/02 06:15:48;;;;;;;15.45;7.35;;;16.20;93.10;;;;;;5005333;28;20034;-69
2023/10/02 06:18:27;;;;;;;13.77;6.40;;;16.30;93.10;;;;;;5009298;28;20422;-66
2023/10/02 06:21:03;;;;;;;17.30;6.88;;;16.30;93.00;;;;;;5004301;28;20058;-66
2023/10/02 06:23:37;;;;;;;13.15;6.18;;;16.30;92.80;;;;;;5003940;28;20034;-67
2023/10/02 06:26:03;;;;;;;15.35;6.82;;;16.30;93.00;;;;;;5003727;28;20048;-69
2023/10/02 06:28:30;;;;;;;13.82;6.43;;;16.30;93.00;;;;;;5002496;28;20268;-66
2023/10/02 06:30:55;;;;;;;15.60;6.22;;;16.30;93.10;;;;;;5001522;28;20630;-67
2023/10/02 06:33:21;;;;;;;15.43;7.13;;;16.30;93.10;;;;;;5006768;28;20108;-67
2023/10/02 06:35:57;;;;;;;17.38;6.85;;;16.40;93.10;;;;;;5004361;28;20034;-66
2023/10/02 06:38:30;;;;;;;18.00;7.15;;;16.40;93.00;;;;;;5000722;28;20184;-68
2023/10/02 06:40:56;;;;;;;13.07;5.55;;;16.40;92.90;;;;;;5002568;28;20037;-66
2023/10/02 06:43:28;;;;;;;17.08;6.80;;;16.40;93.00;;;;;;5004637;28;20026;-66
2023/10/02 06:46:19;;;;;;;15.40;6.97;;;16.50;92.90;;;;;;5001045;28;20532;-67
2023/10/02 06:48:46;;;;;;;15.02;6.53;;;16.50;92.80;;;;;;5003498;28;20031;-66
2023/10/02 06:51:16;;;;;;;14.38;6.93;;;16.50;92.80;;;;;;5007286;28;20367;-66
2023/10/02 06:53:42;;;;;;;13.70;6.43;;;16.50;92.90;;;;;;5000306;28;21515;-66
2023/10/02 06:56:11;;;;;;;15.55;6.57;;;16.50;92.40;;;;;;5009205;28;20022;-67
2023/10/02 06:58:48;;;;;;;17.60;7.32;;;16.60;92.60;;;;;;5022938;28;20029;-66
2023/10/02 07:01:20;;;;;;;15.68;6.60;;;16.60;92.60;;;;;;5006006;28;20037;-66
2023/10/02 07:03:51;;;;;;;16.08;6.82;;;16.60;92.60;;;;;;5006577;28;20026;-68
2023/10/02 07:06:23;;;;;;;13.48;6.65;;;16.60;92.70;;;;;;5010884;28;20340;-67
2023/10/02 07:09:09;;;;;;;13.90;6.47;;;16.60;92.80;;;;;;5004426;28;20375;-66
2023/10/02 07:11:36;;;;;;;13.65;6.35;;;16.70;92.80;;;;;;5006451;28;20033;-66
2023/10/02 07:14:04;;;;;;;15.38;6.93;;;16.70;92.50;;;;;;5003995;28;20044;-67
2023/10/02 07:16:32;;;;;;;12.88;6.80;;;16.80;92.50;;;;;;5009243;28;20038;-67
2023/10/02 07:18:58;;;;;;;16.02;6.63;;;16.80;92.00;;;;;;5002650;28;20614;-69
2023/10/02 07:21:26;;;;;;;21.08;6.60;;;16.90;92.20;;;;;;5007783;28;20042;-66
2023/10/02 07:23:52;;;;;;;18.55;6.45;;;16.90;91.90;;;;;;5002843;28;20034;-67
2023/10/02 07:26:49;;;;;;;15.32;6.78;;;17.00;92.10;;;;;;5004820;28;20103;-66
2023/10/02 07:29:07;;;;;;;14.43;6.60;;;17.00;92.00;;;;;;5001919;28;20038;-66
2023/10/02 07:31:34;;;;;;;15.18;6.30;;;17.10;91.70;;;;;;5007205;28;20458;-66
2023/10/02 07:34:00;;;;;;;14.23;6.68;;;17.20;91.60;;;;;;5010068;28;20037;-66
2023/10/02 07:36:32;;;;;;;14.77;6.57;;;17.30;91.40;;;;;;5008768;28;20034;-66
2023/10/02 07:39:00;;;;;;;17.38;7.55;;;17.40;91.10;;;;;;5002624;28;20430;-67
2023/10/02 07:41:25;;;;;;;13.18;6.07;;;17.40;91.20;;;;;;5007371;28;20120;-71
2023/10/02 07:44:07;;;;;;;17.55;6.97;;;17.50;91.00;;;;;;5001838;28;20125;-67
2023/10/02 07:46:33;;;;;;;13.93;6.38;;;17.50;91.00;;;;;;5002425;28;20048;-67
2023/10/02 07:48:59;;;;;;;14.45;6.53;;;17.50;91.20;;;;;;5009411;28;20117;-67
2023/10/02 07:51:35;;;;;;;17.23;7.03;;;17.60;91.00;;;;;;5008752;28;20374;-67
2023/10/02 07:54:02;;;;;;;12.75;6.40;;;17.60;90.50;;;;;;5006534;28;20033;-67
2023/10/02 07:56:32;;;;;;;19.23;7.28;;;17.70;90.40;;;;;;5008870;28;20133;-67
2023/10/02 07:59:01;;;;;;;12.10;6.33;;;17.70;90.70;;;;;;5003784;28;20532;-67
2023/10/02 08:01:27;;;;;;;18.02;6.30;;;17.80;90.70;;;;;;5002663;28;20025;-66
2023/10/02 08:03:55;;;;;;;14.32;6.72;;;17.90;90.30;;;;;;5009336;28;20026;-67
2023/10/02 08:06:33;;;;;;;14.00;6.82;;;18.00;90.20;;;;;;5008228;28;20038;-67
2023/10/02 08:11:54;;;;;;;15.48;6.40;;;18.10;90.20;;;;;;5007377;28;20040;-67
2023/10/02 08:14:42;;;;;;;13.10;6.28;;;18.30;89.80;;;;;;5004429;28;20034;-69
2023/10/02 08:17:27;;;;;;;15.48;6.93;;;18.30;90.10;;;;;;4996308;28;20030;-66
2023/10/02 08:19:54;;;;;;;16.90;6.75;;;18.50;89.20;;;;;;5009656;28;20112;-67
2023/10/02 08:22:35;;;;;;;17.42;6.72;;;18.60;89.20;;;;;;5010852;28;20034;-67
2023/10/02 08:25:01;;;;;;;;;;;18.80;89.10;;;;;;5008231;28;20116;-67
2023/10/02 08:27:27;;;;;;;16.08;6.55;;;18.90;88.30;;;;;;5003130;28;19964;-67
2023/10/02 08:29:52;;;;;;;13.38;6.60;;;19.10;87.90;;;;;;5005894;28;20038;-67
2023/10/02 08:32:28;;;;;;;16.58;6.72;;;19.30;87.30;;;;;;5007510;28;20026;-67
2023/10/02 08:34:54;;;;;;;15.88;6.90;;;19.40;86.30;;;;;;5007282;28;20041;-68
2023/10/02 08:37:19;;;;;;;15.23;6.53;;;19.40;86.20;;;;;;5007064;28;20030;-67
2023/10/02 08:39:45;;;;;;;17.77;7.07;;;19.50;85.90;;;;;;5007084;28;20096;-67
2023/10/02 08:42:10;;;;;;;15.77;7.03;;;19.70;86.10;;;;;;5012112;28;20033;-67
2023/10/02 08:44:42;;;;;;;13.50;6.22;;;19.80;85.30;;;;;;5011958;28;20033;-64
2023/10/02 08:47:24;;;;;;;13.07;6.60;;;19.90;85.00;;;;;;5009809;28;20040;-65
2023/10/02 08:50:01;;;;;;;14.65;6.43;;;20.20;85.80;;;;;;5011440;28;20113;-64
2023/10/02 08:52:38;;;;;;;13.77;6.95;;;20.20;84.40;;;;;;5014154;28;20026;-64
2023/10/02 08:55:33;;;;;;;16.70;6.43;;;20.30;84.40;;;;;;5006727;28;20068;-65
2023/10/02 08:58:15;;;;;;;13.93;7.00;;;20.20;84.30;;;;;;5012853;28;20040;-64
2023/10/02 09:03:42;;;;;;;16.02;7.00;;;20.50;83.70;;;;;;5007605;28;20076;-65
2023/10/02 09:11:39;;;;;;;12.68;6.00;;;20.60;82.30;;;;;;4997515;28;20085;-64
2023/10/02 09:14:21;;;;;;;12.18;6.38;;;20.50;82.80;;;;;;5008367;28;20056;-65
2023/10/02 09:19:37;;;;;;;14.18;6.90;;;20.80;83.90;;;;;;5012772;28;20084;-63
2023/10/02 09:22:07;;;;;;;13.73;6.00;;;21.00;83.10;;;;;;5004388;28;20041;-64
2023/10/02 09:24:36;;;;;;;15.17;6.40;;;21.10;83.70;;;;;;5006546;28;20430;-65
2023/10/02 09:27:23;;;;;;;17.77;7.60;;;21.20;83.00;;;;;;5001355;28;20296;-64
2023/10/02 09:32:49;;;;;;;16.63;6.93;;;21.20;81.80;;;;;;5004255;28;20555;-64
2023/10/02 09:35:44;;;;;;;21.77;7.47;;;21.20;80.90;;;;;;5012283;28;20386;-65
2023/10/02 09:38:10;;;;;;;16.20;6.75;;;21.10;81.80;;;;;;5011037;28;20058;-65
2023/10/02 09:43:24;;;;;;;23.15;7.82;;;21.30;80.40;;;;;;5006978;28;20109;-64
2023/10/02 09:45:55;;;;;;;22.80;7.88;;;21.50;82.20;;;;;;5009657;28;20026;-64
2023/10/02 09:48:53;;;;;;;12.77;6.53;;;21.30;80.80;;;;;;5011752;28;20049;-65
2023/10/02 09:51:30;;;;;;;14.95;7.22;;;21.50;81.30;;;;;;5012824;28;20034;-64
2023/10/02 09:54:17;;;;;;;16.48;7.25;;;21.60;80.40;;;;;;5011057;28;20049;-64
2023/10/02 09:57:13;;;;;;;14.32;6.30;;;21.60;80.50;;;;;;5008588;28;20061;-64
2023/10/02 09:59:46;;;;;;;14.68;6.75;;;21.90;80.30;;;;;;5010986;28;20030;-64
2023/10/02 10:10:27;;;;;;;18.40;6.90;;;22.00;78.60;;;;;;5007337;28;20516;-65
2023/10/02 10:12:58;;;;;;;19.45;7.03;;;22.30;80.00;;;;;;5005740;28;20144;-64
2023/10/02 10:15:25;;;;;;;;;;;22.50;78.90;;;;;;5001844;28;20052;-67
2023/10/02 10:17:51;;;;;;;17.40;7.22;;;22.70;79.80;;;;;;4997398;28;20278;-68
2023/10/02 10:20:20;;;;;;;14.85;6.63;;;22.80;78.40;;;;;;5005461;28;20037;-64
2023/10/02 10:22:56;;;;;;;16.00;7.00;;;22.90;76.60;;;;;;5001514;28;20031;-64
2023/10/02 10:27:59;;;;;;;15.48;6.25;;;22.80;77.10;;;;;;5006245;28;20887;-65
2023/10/02 10:30:25;;;;;;;17.05;6.55;;;22.80;77.00;;;;;;5002945;28;20026;-65
2023/10/02 10:35:48;;;;;;;20.42;8.13;;;23.00;77.00;;;;;;5003504;28;20041;-65
2023/10/02 10:38:25;;;;;;;12.63;6.03;;;23.30;77.20;;;;;;4999127;28;20090;-67
2023/10/02 10:41:01;;;;;;;15.10;6.72;;;23.40;75.70;;;;;;4998576;28;20022;-64
2023/10/02 10:43:56;;;;;;;20.45;6.70;;;23.60;76.00;;;;;;5008583;28;20038;-64
2023/10/02 10:46:27;;;;;;;13.30;5.93;;;23.90;74.70;;;;;;5002161;28;20026;-65
2023/10/02 10:49:10;;;;;;;13.32;6.28;;;24.00;75.50;;;;;;5007427;28;20033;-65
2023/10/02 10:51:37;;;;;;;12.52;6.03;;;23.90;74.50;;;;;;5012651;28;20160;-67
2023/10/02 10:54:13;;;;;;;10.88;5.30;;;24.00;74.60;;;;;;4997412;28;20042;-67
2023/10/02 10:57:21;;;;;;;11.98;5.80;;;24.00;74.10;;;;;;5002255;28;20053;-65
2023/10/02 11:00:23;;;;;;;11.00;5.90;;;24.00;73.30;;;;;;4999342;28;20072;-64
2023/10/02 11:03:14;;;;;;;14.60;6.63;;;24.00;73.20;;;;;;5000690;28;20042;-67
2023/10/02 11:05:41;;;;;;;12.00;5.65;;;24.00;73.10;;;;;;5006834;28;20038;-66
2023/10/02 11:08:25;;;;;;;11.68;5.70;;;24.00;72.90;;;;;;5009072;28;20030;-65
2023/10/02 11:11:18;;;;;;;12.95;6.10;;;24.00;72.20;;;;;;5002053;28;20034;-66
2023/10/02 11:13:50;;;;;;;13.65;5.93;;;24.10;73.50;;;;;;5002096;28;20438;-65
2023/10/02 11:16:30;;;;;;;11.85;5.18;;;24.10;72.70;;;;;;5003735;28;20033;-65
2023/10/02 11:19:34;;;;;;;11.25;5.65;;;24.20;71.10;;;;;;5001357;28;20104;-66
2023/10/02 11:22:19;;;;;;;11.35;4.88;;;24.40;71.90;;;;;;5001650;28;20029;-64
2023/10/02 11:24:51;;;;;;;14.50;5.60;;;24.40;71.50;;;;;;5005102;28;20092;-65
2023/10/02 11:27:17;;;;;;;16.35;5.63;;;24.30;69.60;;;;;;5006422;28;20558;-65
2023/10/02 11:30:03;;;;;;;11.32;5.80;;;24.60;71.20;;;;;;5002742;28;20133;-65
2023/10/02 11:32:53;;;;;;;11.30;5.40;;;24.80;69.60;;;;;;5006944;28;20038;-65
2023/10/02 11:35:28;;;;;;;13.88;6.18;;;24.40;70.10;;;;;;5008480;28;20038;-65
2023/10/02 11:37:54;;;;;;;10.48;5.00;;;24.60;70.50;;;;;;4997970;28;20625;-66
2023/10/02 11:40:24;;;;;;;12.52;6.22;;;24.60;70.90;;;;;;5002749;28;20034;-64
2023/10/02 11:42:50;;;;;;;12.50;5.82;;;24.40;71.20;;;;;;5004544;28;20525;-65
2023/10/02 11:45:15;;;;;;;12.45;6.25;;;24.80;71.10;;;;;;5009640;28;20041;-65
2023/10/02 11:47:40;;;;;;;12.40;5.80;;;24.90;69.20;;;;;;5003937;28;20897;-66
2023/10/02 11:50:06;;;;;;;13.88;6.43;;;24.50;69.00;;;;;;5003380;28;20041;-64
2023/10/02 11:52:32;;;;;;;15.30;6.38;;;24.20;70.20;;;;;;5004056;28;20034;-64
2023/10/02 11:54:58;;;;;;;13.77;6.25;;;23.70;71.30;;;;;;5007108;28;20382;-66
2023/10/02 11:57:24;;;;;;;11.75;6.07;;;23.40;72.00;;;;;;5002803;28;20044;-66
2023/10/02 11:59:50;;;;;;;14.30;6.50;;;23.30;73.70;;;;;;4999626;28;20033;-64
2023/10/02 12:02:18;;;;;;;14.52;6.72;;;23.10;73.90;;;;;;4998424;28;20037;-66
2023/10/02 12:04:45;;;;;;;13.23;5.97;;;23.00;73.50;;;;;;5004694;28;20045;-65
2023/10/02 12:07:11;;;;;;;11.13;6.07;;;23.00;74.50;;;;;;5010863;28;20022;-65
2023/10/02 12:09:36;;;;;;;16.58;6.90;;;22.90;75.40;;;;;;5009694;28;20096;-65
2023/10/02 12:12:03;;;;;;;13.77;6.40;;;23.00;75.20;;;;;;5008880;28;20364;-64
2023/10/02 12:14:30;;;;;;;16.30;7.20;;;23.00;74.70;;;;;;5002892;28;20161;-65
2023/10/02 12:16:59;;;;;;;13.88;6.90;;;23.00;73.90;;;;;;4994750;28;20022;-64
2023/10/02 12:19:36;;;;;;;12.95;5.90;;;23.20;74.40;;;;;;5006663;28;20041;-65
2023/10/02 12:22:05;;;;;;;16.13;7.00;;;23.50;73.60;;;;;;5006046;28;20026;-64
2023/10/02 12:24:31;;;;;;;14.27;6.30;;;23.30;72.80;;;;;;5001048;28;20459;-64
2023/10/02 12:26:56;;;;;;;13.77;6.68;;;23.20;74.00;;;;;;5007548;28;20046;-67
2023/10/02 12:29:22;;;;;;;13.63;6.13;;;23.00;74.40;;;;;;4997135;28;20030;-64
2023/10/02 12:31:48;;;;;;;14.30;7.28;;;23.00;74.40;;;;;;5004205;28;20100;-64
2023/10/02 12:34:14;;;;;;;15.38;7.30;;;22.90;74.60;;;;;;5002407;28;20041;-64
2023/10/02 12:36:41;;;;;;;12.85;6.07;;;22.80;75.20;;;;;;5007613;28;20041;-65
2023/10/02 12:39:12;;;;;;;14.07;6.78;;;22.60;76.00;;;;;;4999673;28;20037;-64
2023/10/02 12:41:38;;;;;;;14.45;6.50;;;22.60;76.10;;;;;;5004413;28;20037;-65
2023/10/02 12:44:03;;;;;;;13.65;6.40;;;22.60;76.30;;;;;;4998947;28;20038;-66
2023/10/02 12:46:30;;;;;;;12.05;6.47;;;22.70;77.10;;;;;;5003580;28;20044;-64
2023/10/02 12:48:57;;;;;;;13.80;6.25;;;22.80;77.00;;;;;;5005864;28;20041;-64
2023/10/02 12:51:24;;;;;;;14.75;6.72;;;22.90;76.30;;;;;;5009635;28;20385;-64
2023/10/02 12:53:51;;;;;;;12.82;6.75;;;23.20;76.00;;;;;;4999075;28;20078;-65
2023/10/02 12:56:20;;;;;;;13.52;6.18;;;23.40;76.40;;;;;;5003582;28;20037;-64
2023/10/02 12:58:50;;;;;;;12.93;6.55;;;23.40;76.10;;;;;;4996693;28;20469;-64
2023/10/02 13:01:24;;;;;;;11.83;5.83;;;23.40;76.40;;;;;;5004743;28;20030;-64
2023/10/02 13:03:51;;;;;;;14.13;6.40;;;23.50;75.60;;;;;;4999959;28;20127;-65
2023/10/02 13:06:17;;;;;;;12.82;6.25;;;23.60;75.70;;;;;;5004149;28;20033;-65
2023/10/02 13:08:44;;;;;;;15.55;6.70;;;23.80;75.20;;;;;;5007628;28;20386;-64
2023/10/02 13:11:13;;;;;;;14.00;6.25;;;24.10;75.70;;;;;;5010984;28;20038;-64
2023/10/02 13:13:44;;;;;;;13.45;6.43;;;24.20;72.80;;;;;;4997033;28;20033;-65
2023/10/02 13:16:11;;;;;;;14.35;6.55;;;24.00;72.40;;;;;;4996120;28;20030;-65
2023/10/02 13:18:37;;;;;;;15.95;6.80;;;24.20;72.50;;;;;;5005816;28;20155;-65
2023/10/02 13:21:06;;;;;;;15.32;6.88;;;24.80;71.40;;;;;;5005193;28;20025;-65
2023/10/02 13:23:32;;;;;;;14.23;6.50;;;25.30;68.80;;;;;;5005345;28;20114;-65
2023/10/02 13:25:57;;;;;;;12.27;6.57;;;25.50;68.10;;;;;;4999810;28;20133;-65
2023/10/02 13:28:24;;;;;;;16.90;6.32;;;25.50;67.90;;;;;;5003033;28;20504;-65
2023/10/02 13:30:52;;;;;;;15.57;7.13;;;25.70;66.80;;;;;;5004129;28;20034;-65
2023/10/02 13:33:20;;;;;;;14.63;6.85;;;25.40;66.80;;;;;;5002782;28;20089;-67
2023/10/02 13:35:49;;;;;;;14.82;6.82;;;25.30;68.40;;;;;;5005041;28;20061;-67
2023/10/02 13:38:16;;;;;;;14.23;6.57;;;25.40;68.70;;;;;;5007786;28;20028;-65
2023/10/02 13:40:41;;;;;;;14.27;6.70;;;25.30;69.40;;;;;;5004217;28;20026;-65
2023/10/02 13:43:07;;;;;;;17.33;6.85;;;25.50;68.90;;;;;;5001568;28;20426;-64
2023/10/02 13:45:35;;;;;;;13.98;6.28;;;25.00;70.10;;;;;;5004901;28;20093;-65
2023/10/02 13:48:00;;;;;;;14.30;6.53;;;25.30;68.90;;;;;;5012148;28;20034;-64
2023/10/02 13:50:25;;;;;;;11.40;5.88;;;25.00;69.80;;;;;;5007620;28;20045;-64
2023/10/02 13:52:53;;;;;;;13.50;6.57;;;25.00;70.50;;;;;;5008058;28;20044;-63
2023/10/02 13:55:19;;;;;;;15.25;7.47;;;24.50;71.20;;;;;;5009148;28;20026;-64
2023/10/02 13:57:52;;;;;;;12.55;6.72;;;24.40;71.70;;;;;;5004043;28;20471;-65
2023/10/02 14:00:20;;;;;;;13.10;6.70;;;24.40;72.30;;;;;;5005424;28;20030;-66
2023/10/02 14:02:47;;;;;;;17.05;6.45;;;24.40;72.20;;;;;;5002316;28;20101;-65